Map

Track Data

SID SEASON NUMBER BASIN SUBBASIN NAME ISO_TIME NATURE LAT LON WMO_WIND WMO_PRES WMO_AGENCY TRACK_TYPE DIST2LAND LANDFALL IFLAG USA_AGENCY USA_ATCF_ID USA_LAT USA_LON USA_RECORD USA_STATUS USA_WIND USA_PRES USA_SSHS USA_R34_NE USA_R34_SE USA_R34_SW USA_R34_NW USA_R50_NE USA_R50_SE USA_R50_SW USA_R50_NW USA_R64_NE USA_R64_SE USA_R64_SW USA_R64_NW USA_POCI USA_ROCI USA_RMW USA_EYE TOKYO_LAT TOKYO_LON TOKYO_GRADE TOKYO_WIND TOKYO_PRES TOKYO_R50_DIR TOKYO_R50_LONG TOKYO_R50_SHORT TOKYO_R30_DIR TOKYO_R30_LONG TOKYO_R30_SHORT TOKYO_LAND CMA_LAT CMA_LON CMA_CAT CMA_WIND CMA_PRES HKO_LAT HKO_LON HKO_CAT HKO_WIND HKO_PRES NEWDELHI_LAT NEWDELHI_LON NEWDELHI_GRADE NEWDELHI_WIND NEWDELHI_PRES NEWDELHI_CI NEWDELHI_DP NEWDELHI_POCI REUNION_LAT REUNION_LON REUNION_TYPE REUNION_WIND REUNION_PRES REUNION_TNUM REUNION_CI REUNION_RMW REUNION_R34_NE REUNION_R34_SE REUNION_R34_SW REUNION_R34_NW REUNION_R50_NE REUNION_R50_SE REUNION_R50_SW REUNION_R50_NW REUNION_R64_NE REUNION_R64_SE REUNION_R64_SW REUNION_R64_NW BOM_LAT BOM_LON BOM_TYPE BOM_WIND BOM_PRES BOM_TNUM BOM_CI BOM_RMW BOM_R34_NE BOM_R34_SE BOM_R34_SW BOM_R34_NW BOM_R50_NE BOM_R50_SE BOM_R50_SW BOM_R50_NW BOM_R64_NE BOM_R64_SE BOM_R64_SW BOM_R64_NW BOM_ROCI BOM_POCI BOM_EYE BOM_POS_METHOD BOM_PRES_METHOD NADI_LAT NADI_LON NADI_CAT NADI_WIND NADI_PRES WELLINGTON_LAT WELLINGTON_LON WELLINGTON_WIND WELLINGTON_PRES DS824_LAT DS824_LON DS824_STAGE DS824_WIND DS824_PRES TD9636_LAT TD9636_LON TD9636_STAGE TD9636_WIND TD9636_PRES TD9635_LAT TD9635_LON TD9635_WIND TD9635_PRES TD9635_ROCI NEUMANN_LAT NEUMANN_LON NEUMANN_CLASS NEUMANN_WIND NEUMANN_PRES MLC_LAT MLC_LON MLC_CLASS MLC_WIND MLC_PRES USA_GUST BOM_GUST BOM_GUST_PER REUNION_GUST REUNION_GUST_PER USA_SEAHGT USA_SEARAD_NE USA_SEARAD_SE USA_SEARAD_SW USA_SEARAD_NW STORM_SPEED STORM_DIR
1960075S12149 1960 12 SP EA NOT_NAMED 1960-03-14 23:00:00 NR -12.3000 148.950 1005 bom main 214 214 ______O___O___ -1 -12.4000 149.000 1005 -12.2000 148.900 1 6 275
1960075S12149 1960 12 SP EA NOT_NAMED 1960-03-15 00:00:00 TS -12.2918 148.856 main 219 219 O_____P__OP___ jtwc_sh SH171960 -12.2000 148.800 -1 -12.4107 148.901 1004 -12.4000 148.900 TC 20 1005 -12.2106 148.846 1 5 264
1960075S12149 1960 12 SP EA NOT_NAMED 1960-03-15 03:00:00 TS -12.3293 148.641 main 228 228 P_____P__PP___ SH171960 -12.2600 148.660 -1 -12.4416 148.606 1004 -12.4316 148.595 TC 21 1004 -12.2413 148.681 1 4 261
1960075S12149 1960 12 SP EA NOT_NAMED 1960-03-15 06:00:00 TS -12.3607 148.426 main 244 244 O_____P__PP___ jtwc_sh SH171960 -12.3000 148.500 -1 -12.4689 148.322 1003 -12.4604 148.303 TC 22 1003 -12.2686 148.510 1 4 264
1960075S12149 1960 12 SP EA NOT_NAMED 1960-03-15 09:00:00 TS -12.3759 148.207 main 247 246 P_____P__PP___ SH171960 -12.3075 148.307 -1 -12.4903 148.060 1002 -12.4840 148.033 TC 23 1002 -12.2901 148.329 1 4 267
1960075S12149 1960 12 SP EA NOT_NAMED 1960-03-15 11:00:00 TS -12.3802 148.062 1002 bom main 246 246 P_____O__PO___ SH171960 -12.3026 148.169 -1 -12.5000 147.900 1002 -12.4956 147.873 TC 24 1002 -12.3000 148.200 1 4 269
1960075S12149 1960 12 SP EA NOT_NAMED 1960-03-15 12:00:00 TS -12.3813 147.992 main 246 246 O_____P__OP___ jtwc_sh SH171960 -12.3000 148.100 -1 -12.5033 147.826 1002 -12.5000 147.800 TC 25 1002 -12.3034 148.133 1 4 269
1960075S12149 1960 12 SP EA NOT_NAMED 1960-03-15 15:00:00 TS -12.3845 147.792 main 247 247 P_____P__PP___ SH171960 -12.3000 147.900 -1 -12.5078 147.624 1002 -12.5070 147.610 TC 25 1002 -12.3079 147.925 1 4 270
1960075S12149 1960 12 SP EA NOT_NAMED 1960-03-15 18:00:00 TS -12.3841 147.604 main 250 250 O_____P__PP___ jtwc_sh SH171960 -12.3000 147.700 -1 -12.5065 147.449 1002 -12.5073 147.455 TC 25 1002 -12.3067 147.716 1 4 270
1960075S12149 1960 12 SP EA NOT_NAMED 1960-03-15 21:00:00 TS -12.3818 147.421 main 254 254 P_____P__PP___ SH171960 -12.3000 147.485 -1 -12.5026 147.295 1002 -12.5040 147.322 TC 25 1002 -12.3027 147.519 1 3 271
1960075S12149 1960 12 SP EA NOT_NAMED 1960-03-15 23:00:00 TS -12.3802 147.310 1002 bom main 257 257 P_____O__PO___ SH171960 -12.3000 147.355 -1 -12.5000 147.200 1002 -12.5012 147.240 TC 25 1002 -12.3000 147.400 1 3 271
1960075S12149 1960 12 SP EA NOT_NAMED 1960-03-16 00:00:00 TS -12.3800 147.260 main 257 257 O_____P__OP___ jtwc_sh SH171960 -12.3000 147.300 -1 -12.5000 147.152 1002 -12.5000 147.200 TC 25 1002 -12.3000 147.350 1 3 270
1960075S12149 1960 12 SP EA NOT_NAMED 1960-03-16 03:00:00 TS -12.3799 147.134 main 265 265 P_____P__PP___ SH171960 -12.3000 147.185 -1 -12.4999 147.018 1002 -12.5000 147.068 TC 25 1002 -12.2999 147.215 1 2 270
1960075S12149 1960 12 SP EA NOT_NAMED 1960-03-16 06:00:00 TS -12.3800 147.027 main 268 268 O_____P__PP___ jtwc_sh SH171960 -12.3000 147.100 -1 -12.4999 146.895 1002 -12.5000 146.943 TC 25 1002 -12.2999 147.096 1 2 270
1960075S12149 1960 12 SP EA NOT_NAMED 1960-03-16 09:00:00 TS -12.3800 146.922 main 271 271 P_____P__PP___ SH171960 -12.3000 147.015 -1 -12.5000 146.778 1002 -12.5000 146.821 TC 25 1002 -12.2999 146.981 1 2 270
1960075S12149 1960 12 SP EA NOT_NAMED 1960-03-16 11:00:00 TS -12.3800 146.846 1002 bom main 275 275 P_____O__PO___ SH171960 -12.3000 146.945 -1 -12.5000 146.700 1002 -12.5000 146.740 TC 25 1002 -12.3000 146.900 1 2 270
1960075S12149 1960 12 SP EA NOT_NAMED 1960-03-16 12:00:00 TS -12.3800 146.802 main 275 275 O_____P__OP___ jtwc_sh SH171960 -12.3000 146.900 -1 -12.5000 146.658 1002 -12.5000 146.700 TC 25 1002 -12.3000 146.851 1 3 270
1960075S12149 1960 12 SP EA NOT_NAMED 1960-03-16 15:00:00 TS -12.3800 146.641 main 284 284 P_____P__PP___ SH171960 -12.3000 146.700 -1 -12.5000 146.533 1002 -12.5000 146.575 TC 25 1002 -12.3000 146.697 1 3 270
1960075S12149 1960 12 SP EA NOT_NAMED 1960-03-16 18:00:00 TS -12.3800 146.480 main 288 288 O_____P__PP___ jtwc_sh SH171960 -12.3000 146.500 -1 -12.5000 146.408 1002 -12.5000 146.450 TC 25 1002 -12.3000 146.541 1 3 270
1960075S12149 1960 12 SP EA NOT_NAMED 1960-03-16 21:00:00 TS -12.3800 146.354 main 294 288 P_____P__PP___ SH171960 -12.3000 146.385 -1 -12.5000 146.283 1002 -12.5000 146.325 TC 25 1002 -12.3000 146.391 1 2 270
1960075S12149 1960 12 SP EA NOT_NAMED 1960-03-16 23:00:00 TS -12.3800 146.280 1002 bom main 288 281 P_____O__PO___ SH171960 -12.3000 146.328 -1 -12.5000 146.200 1002 -12.5000 146.242 TC 25 1002 -12.3000 146.300 1 2 270
1960075S12149 1960 12 SP EA NOT_NAMED 1960-03-17 00:00:00 TS -12.3800 146.244 main 281 274 O_____P__OP___ jtwc_sh SH171960 -12.3000 146.300 -1 -12.5000 146.157 1002 -12.5000 146.200 TC 25 1002 -12.3000 146.261 1 2 270
1960075S12149 1960 12 SP EA NOT_NAMED 1960-03-17 03:00:00 TS -12.3800 146.131 main 274 267 P_____P__PP___ SH171960 -12.3000 146.200 -1 -12.5000 146.028 1002 -12.5000 146.071 TC 25 1002 -12.2999 146.156 1 2 270
1960075S12149 1960 12 SP EA NOT_NAMED 1960-03-17 06:00:00 TS -12.3800 146.021 main 267 261 O_____P__PP___ jtwc_sh SH171960 -12.3000 146.100 -1 -12.5000 145.900 1002 -12.5000 145.943 TC 25 1002 -12.2999 146.061 1 2 270
1960075S12149 1960 12 SP EA NOT_NAMED 1960-03-17 09:00:00 TS -12.3800 145.916 main 261 255 P_____P__PP___ SH171960 -12.3000 146.008 -1 -12.5000 145.778 1002 -12.5000 145.818 TC 25 1002 -12.3000 145.967 1 2 270
1960075S12149 1960 12 SP EA NOT_NAMED 1960-03-17 11:00:00 TS -12.3800 145.843 1002 bom main 255 255 P_____O__PO___ SH171960 -12.3000 145.939 -1 -12.5000 145.700 1002 -12.5000 145.738 TC 25 1002 -12.3000 145.900 1 2 270
1960075S12149 1960 12 SP EA NOT_NAMED 1960-03-17 12:00:00 TS -12.3802 145.805 main 255 245 O_____P__OP___ jtwc_sh SH171960 -12.3000 145.900 -1 -12.5000 145.662 1002 -12.5000 145.700 TC 25 1002 -12.3012 145.860 1 2 270
1960075S12149 1960 12 SP EA NOT_NAMED 1960-03-17 15:00:00 TS -12.3811 145.676 main 245 234 P_____P__PP___ SH171960 -12.3000 145.750 -1 -12.5000 145.553 1002 -12.5000 145.593 TC 25 1002 -12.3054 145.736 1 2 270
1960075S12149 1960 12 SP EA NOT_NAMED 1960-03-17 18:00:00 TS -12.3816 145.550 main 234 213 O_____P__PP___ jtwc_sh SH171960 -12.3000 145.600 -1 -12.5000 145.452 1002 -12.5000 145.493 TC 25 1002 -12.3080 145.607 1 2 269
1960075S12149 1960 12 SP EA NOT_NAMED 1960-03-17 21:00:00 TS -12.3841 145.444 main 213 213 P_____P__PP___ SH171960 -12.3075 145.493 -1 -12.5000 145.358 1002 -12.5000 145.396 TC 25 1002 -12.3057 145.480 1 2 270
1960075S12149 1960 12 SP EA NOT_NAMED 1960-03-17 23:00:00 TS -12.3823 145.379 1002 bom main 213 213 P_____O__PO___ SH171960 -12.3057 145.431 -1 -12.5000 145.300 1002 -12.5000 145.332 TC 25 1002 -12.3000 145.400 1 2 273
1960075S12149 1960 12 SP EA NOT_NAMED 1960-03-18 00:00:00 TS -12.3788 145.348 main 203 203 O_____P__OP___ jtwc_sh SH171960 -12.3000 145.400 -1 -12.5000 145.277 1002 -12.5000 145.300 TC 25 1002 -12.2938 145.365 1 2 283
1960075S12149 1960 12 SP EA NOT_NAMED 1960-03-18 03:00:00 TS -12.3538 145.257 main 203 192 P_____P__PP___ SH171960 -12.2500 145.300 -1 -12.4999 145.214 1002 -12.5000 145.208 TC 25 1002 -12.2691 145.264 1 2 286
1960075S12149 1960 12 SP EA NOT_NAMED 1960-03-18 06:00:00 TS -12.3280 145.167 main 196 186 O_____P__PP___ jtwc_sh SH171960 -12.2000 145.200 -1 -12.4999 145.150 1002 -12.4999 145.115 TC 25 1002 -12.2403 145.168 1 2 281
1960075S12149 1960 12 SP EA NOT_NAMED 1960-03-18 09:00:00 TS -12.3197 145.074 main 186 176 P_____P__PP___ SH171960 -12.1925 145.108 -1 -12.4999 145.070 1002 -12.5000 145.014 TC 25 1002 -12.2136 145.070 1 2 273
1960075S12149 1960 12 SP EA NOT_NAMED 1960-03-18 11:00:00 TS -12.3189 145.004 1002 bom main 176 176 P_____O__PO___ SH171960 -12.1974 145.039 -1 -12.5000 145.000 1002 -12.5000 144.940 TC 25 1002 -12.2000 145.000 1 2 270
1960075S12149 1960 12 SP EA NOT_NAMED 1960-03-18 12:00:00 TS -12.3193 144.962 main 176 155 O_____P__OP___ jtwc_sh SH171960 -12.2000 145.000 -1 -12.5000 144.950 1002 -12.5000 144.900 TC 25 1002 -12.1966 144.962 1 3 270
1960075S12149 1960 12 SP EA NOT_NAMED 1960-03-18 15:00:00 TS -12.3185 144.814 main 155 145 P_____P__PP___ SH171960 -12.2000 144.850 -1 -12.5001 144.777 1002 -12.5001 144.752 TC 25 1002 -12.1921 144.841 1 3 270
1960075S12149 1960 12 SP EA NOT_NAMED 1960-03-18 18:00:00 TS -12.3187 144.659 main 145 124 O_____P__PP___ jtwc_sh SH171960 -12.2000 144.700 -1 -12.5001 144.586 1002 -12.5001 144.592 TC 25 1002 -12.1934 144.715 1 3 270
1960075S12149 1960 12 SP EA NOT_NAMED 1960-03-18 21:00:00 TS -12.3195 144.525 main 124 113 P_____P__PP___ SH171960 -12.2000 144.600 -1 -12.5001 144.404 1002 -12.5001 144.437 TC 25 1002 -12.1974 144.586 1 3 270
1960075S12149 1960 12 SP EA NOT_NAMED 1960-03-18 23:00:00 TS -12.3200 144.443 1002 bom main 113 113 P_____O__PO___ SH171960 -12.2000 144.536 -1 -12.5000 144.300 1002 -12.5000 144.342 TC 25 1002 -12.2000 144.500 1 2 270
1960075S12149 1960 12 SP EA NOT_NAMED 1960-03-19 00:00:00 TS -12.3200 144.405 main 113 103 O_____P__OP___ jtwc_sh SH171960 -12.2000 144.500 -1 -12.5000 144.264 1002 -12.5000 144.300 TC 25 1002 -12.2000 144.460 1 2 270
1960075S12149 1960 12 SP EA NOT_NAMED 1960-03-19 03:00:00 TS -12.3200 144.287 main 103 93 P_____P__PP___ SH171960 -12.2000 144.350 -1 -12.4999 144.179 1002 -12.4999 144.216 TC 25 1002 -12.2000 144.339 1 2 270
1960075S12149 1960 12 SP EA NOT_NAMED 1960-03-19 06:00:00 TS -12.3199 144.176 main 93 83 O_____P__PP___ jtwc_sh SH171960 -12.2000 144.200 -1 -12.4999 144.114 1002 -12.4999 144.150 TC 25 1002 -12.2000 144.216 1 2 270
1960075S12149 1960 12 SP EA NOT_NAMED 1960-03-19 09:00:00 TS -12.3200 144.085 main 83 73 P_____P__PP___ SH171960 -12.2000 144.100 -1 -12.4999 144.051 1002 -12.4999 144.084 TC 25 1002 -12.2000 144.089 1 2 270
1960075S12149 1960 12 SP EA NOT_NAMED 1960-03-19 11:00:00 TS -12.3200 144.021 1002 bom main 73 73 P_____O__PO___ SH171960 -12.2000 144.036 -1 -12.5000 144.000 1002 -12.5000 144.031 TC 25 1002 -12.2000 144.000 1 2 270
1960075S12149 1960 12 SP EA NOT_NAMED 1960-03-19 12:00:00 TS -12.3197 143.985 main 73 63 O_____P__OP___ jtwc_sh SH171960 -12.2000 144.000 -1 -12.5000 143.966 1001 -12.5000 144.000 TC 25 1002 -12.1987 143.961 1 2 270
1960075S12149 1960 12 SP EA NOT_NAMED 1960-03-19 15:00:00 TS -12.3189 143.859 main 63 54 P_____P__PP___ SH171960 -12.2000 143.865 -1 -12.5000 143.856 1001 -12.5000 143.870 TC 26 1001 -12.1944 143.840 1 2 276
1960075S12149 1960 12 SP EA NOT_NAMED 1960-03-19 16:00:00 TS -12.3035 143.821 main 54 54 P_____P__PP___ SH171960 -12.2000 143.813 -1 -12.5000 143.815 1001 -12.5000 143.822 TC 26 1001 -12.1932 143.798 1 2 299
1960075S12149 1960 12 SP EA NOT_NAMED 1960-03-19 18:00:00 TS -12.2654 143.758 main 54 46 O_____P__PP___ jtwc_sh SH171960 -12.2000 143.700 -1 -12.5000 143.731 1000 -12.5000 143.720 TC 27 1001 -12.1918 143.704 1 2 292
1960075S12149 1960 12 SP EA NOT_NAMED 1960-03-19 21:00:00 TS -12.2364 143.655 main 55 48 P_____P__PP___ SH171960 -12.2000 143.515 -1 -12.5000 143.595 1000 -12.5000 143.560 TC 28 1000 -12.1942 143.537 1 2 287
1960075S12149 1960 12 SP EA NOT_NAMED 1960-03-19 23:00:00 TS -12.2136 143.585 1000 bom main 48 48 P_____O__PO___ SH171960 -12.2000 143.375 -1 -12.5000 143.500 1000 -12.5000 143.453 TC 29 1000 -12.2000 143.400 1 2 289
1960075S12149 1960 12 SP EA NOT_NAMED 1960-03-20 00:00:00 TS -12.2008 143.549 main 39 21 O_____P__OP___ jtwc_sh SH171960 -12.2000 143.300 -1 -12.5031 143.455 999 -12.5000 143.400 TC 30 1000 -12.2013 143.324 1 4 273
1960075S12149 1960 12 SP EA NOT_NAMED 1960-03-20 03:00:00 TS -12.2014 143.327 main 21 21 P_____P__PP___ SH171960 -12.1924 143.072 -1 -12.5084 143.310 998 -12.5081 143.266 TC 32 999 -12.2091 143.064 1 5 270
1960075S12149 1960 12 SP EA NOT_NAMED 1960-03-20 04:00:00 TS -12.2015 143.237 main 10 10 P_____P__PP___ SH171960 -12.1920 142.988 -1 -12.5059 143.257 998 -12.5083 143.217 TC 33 998 -12.2138 142.967 1 6 270
1960075S12149 1960 12 SP EA NOT_NAMED 1960-03-20 05:00:00 TS -12.2016 143.139 998 bom main 0 0 P_____O__PP___ SH171960 -12.1943 142.897 -1 -12.5000 143.200 998 -12.5059 143.162 TC 34 998 -12.2199 142.867 1 6 270
1960075S12149 1960 12 SP EA NOT_NAMED 1960-03-20 06:00:00 TS -12.2011 143.034 main 0 0 O_____P__OP___ jtwc_sh SH171960 -12.2000 142.800 -1 -12.4837 143.155 998 -12.5000 143.100 TC 35 998 -12.2278 142.763 1 7 270
1960075S12149 1960 12 SP EA NOT_NAMED 1960-03-20 09:00:00 TS -12.1981 142.685 main 0 0 P_____P__PP___ SH171960 -12.2350 142.458 -1 -12.4228 142.986 999 -12.4349 142.902 TC 32 999 -12.2635 142.433 1 7 270
1960075S12149 1960 12 SP EA NOT_NAMED 1960-03-20 11:00:00 TS -12.2056 142.418 1000 bom main 0 0 P_____O__PO___ SH171960 -12.2750 142.216 -1 -12.4000 142.800 1000 -12.4021 142.717 TC 30 999 -12.3000 142.200 1 8 268
1960075S12149 1960 12 SP EA NOT_NAMED 1960-03-20 12:00:00 TS -12.2123 142.280 main 0 0 O_____P__OP___ jtwc_sh SH171960 -12.3000 142.100 -1 -12.3827 142.674 1000 -12.4000 142.600 TC 30 1000 -12.3230 142.106 1 8 265
1960075S12149 1960 12 SP EA NOT_NAMED 1960-03-20 15:00:00 TS -12.2540 141.868 main 0 0 P_____P__PP___ SH171960 -12.3923 141.822 -1 -12.3879 142.185 1001 -12.4547 142.190 TC 27 1001 -12.4085 141.816 1 8 263
1960075S12149 1960 12 SP EA NOT_NAMED 1960-03-20 16:00:00 TS -12.2773 141.720 main 0 0 P_____P__PP___ SH171960 -12.4277 141.726 -1 -12.4290 141.996 1001 -12.4930 142.016 TC 26 1001 -12.4414 141.711 1 9 260
1960075S12149 1960 12 SP EA NOT_NAMED 1960-03-20 17:00:00 TS -12.3055 141.567 1002 bom main 10 10 P_____O__PP___ SH171960 -12.4639 141.620 -1 -12.5000 141.800 1002 -12.5415 141.820 TC 25 1001 -12.4760 141.600 1 9 259
1960075S12149 1960 12 SP EA NOT_NAMED 1960-03-20 18:00:00 TS -12.3387 141.406 1002 bom main 32 32 O_____O__OP___ jtwc_sh SH171960 -12.5000 141.500 -1 -12.6000 141.600 1002 -12.6000 141.600 TC 25 1002 -12.5119 141.480 1 11 259
1960075S12149 1960 12 SP EA NOT_NAMED 1960-03-20 21:00:00 TS -12.4374 140.849 main 89 89 P_____P__PP___ SH171960 -12.5997 141.075 -1 -12.8607 140.802 1002 -12.8455 140.790 TC 25 1002 -12.6245 141.055 1 12 260
1960075S12149 1960 12 SP EA NOT_NAMED 1960-03-20 23:00:00 TS -12.5054 140.425 1003 bom main 130 130 P_____O__PO___ SH171960 -12.6665 140.711 -1 -13.0000 140.200 1003 -13.0224 140.192 TC 25 1002 -12.7000 140.700 1 13 261
1960075S12149 1960 12 SP EA NOT_NAMED 1960-03-21 00:00:00 TS -12.5426 140.203 main 152 152 O_____P__OP___ jtwc_sh SH171960 -12.7000 140.500 -1 -13.0684 139.921 1003 -13.1000 139.900 TC 25 1003 -12.7520 140.493 1 14 261
1960075S12149 1960 12 SP EA NOT_NAMED 1960-03-21 03:00:00 TS -12.6524 139.502 main 228 228 P_____P__PP___ SH171960 -12.8000 139.752 -1 -13.2331 139.106 1003 -13.2429 139.154 TC 25 1003 -12.9154 139.780 1 14 261
1960075S12149 1960 12 SP EA NOT_NAMED 1960-03-21 04:00:00 TS -12.6883 139.257 main 249 221 P_____P__PP___ SH171960 -12.8333 139.474 -1 -13.2715 138.848 1003 -13.2731 138.922 TC 25 1003 -12.9665 139.517 1 15 262
1960075S12149 1960 12 SP EA NOT_NAMED 1960-03-21 05:00:00 TS -12.7239 139.007 1003 bom main 221 200 P_____O__PP___ SH171960 -12.8666 139.188 -1 -13.3000 138.600 1003 -13.2957 138.695 TC 25 1003 -13.0131 139.244 1 15 262
1960075S12149 1960 12 SP EA NOT_NAMED 1960-03-21 06:00:00 TS -12.7589 138.756 main 203 127 O_____P__PP___ jtwc_sh SH171960 -12.9000 138.900 -1 -13.3245 138.363 1003 -13.3114 138.474 TC 25 1003 -13.0534 138.964 1 15 262
1960075S12149 1960 12 SP EA NOT_NAMED 1960-03-21 09:00:00 TS -12.8659 137.998 main 127 83 P_____P__PP___ SH171960 -13.0598 138.058 -1 -13.3422 137.709 1003 -13.3243 137.833 TC 25 1003 -13.1191 138.090 1 15 263
1960075S12149 1960 12 SP EA NOT_NAMED 1960-03-21 11:00:00 TS -12.9114 137.486 main 83 73 P_____P__PO___ SH171960 -13.1122 137.486 -1 -13.3122 137.300 1003 -13.3111 137.412 TC 25 1003 -13.1000 137.500 1 15 266
1960075S12149 1960 12 SP EA NOT_NAMED 1960-03-21 11:30:00 TS -12.9143 137.359 1003 bom main 73 63 P_____O__PP___ SH171960 -13.1101 137.343 -1 -13.3000 137.200 1003 -13.3059 137.306 TC 25 1003 -13.0637 137.355 1 15 269
1960075S12149 1960 12 SP EA NOT_NAMED 1960-03-21 12:00:00 TS -12.9137 137.231 main 54 0 O_____P__OP___ jtwc_sh SH171960 -13.1000 137.200 -1 -13.2836 137.102 1003 -13.3000 137.200 TC 25 1003 -13.0218 137.210 1 15 274
1960075S12149 1960 12 SP EA NOT_NAMED 1960-03-21 14:30:00 TS -12.8670 136.594 1003 bom main 0 0 P_____O__PP___ SH171960 -12.9069 136.485 -1 -13.2000 136.600 1003 -13.2609 136.685 TC 25 1003 -12.7511 136.472 1 15 275
1960075S12149 1960 12 SP EA NOT_NAMED 1960-03-21 15:00:00 TS -12.8532 136.465 main 0 0 P_____P__PP___ SH171960 -12.8523 136.342 -1 -13.1940 136.492 1003 -13.2511 136.580 TC 25 1003 -12.6893 136.324 1 15 277
1960075S12149 1960 12 SP EA NOT_NAMED 1960-03-21 16:00:00 TS -12.8236 136.207 main 0 0 P_____P__PP___ SH171960 -12.7354 136.058 -1 -13.1918 136.266 1003 -13.2316 136.365 TC 25 1003 -12.5631 136.028 1 15 277
1960075S12149 1960 12 SP EA NOT_NAMED 1960-03-21 17:30:00 TS -12.7771 135.819 1003 bom main 0 0 P_____O__PP___ SH171960 -12.5564 135.638 -1 -13.2000 135.900 1003 -13.2063 136.022 TC 25 1003 -12.3774 135.589 1 15 277
1960075S12149 1960 12 SP EA NOT_NAMED 1960-03-21 18:00:00 TS -12.7618 135.690 main 0 0 O_____P__OP___ jtwc_sh SH171960 -12.5000 135.500 -1 -13.2009 135.775 1003 -13.2000 135.900 TC 25 1003 -12.3191 135.445 1 15 277
1960075S12149 1960 12 SI WA NOT_NAMED 1960-03-21 21:00:00 TS -12.6618 134.904 main 0 0 P_____P__PP___ SH171960 -12.1149 134.662 -1 -13.2071 134.958 1003 -13.1998 135.103 TC 25 1003 -12.0516 134.612 1 15 276
1960075S12149 1960 12 SI WA NOT_NAMED 1960-03-21 23:00:00 TS -12.6325 134.384 main 0 0 P_____P__PO___ SH171960 -11.9836 134.141 -1 -13.2031 134.356 1003 -13.2029 134.511 TC 25 1003 -12.0000 134.100 1 15 272
1960075S12149 1960 12 SI WA NOT_NAMED 1960-03-21 23:30:00 TS -12.6387 134.256 1003 bom main 0 0 P_____O__PP___ SH171960 -11.9834 134.018 -1 -13.2000 134.200 1003 -13.2020 134.357 TC 25 1003 -12.0411 133.985 1 15 266
1960075S12149 1960 12 SI WA NOT_NAMED 1960-03-22 00:00:00 TS -12.6496 134.129 main 0 0 O_____P__OP___ jtwc_sh SH171960 -12.0000 133.900 -1 -13.1951 134.036 1003 -13.2000 134.200 TC 25 1003 -12.0916 133.873 1 15 257
1960075S12149 1960 12 SI WA NOT_NAMED 1960-03-22 03:00:00 TS -12.8305 133.371 main 0 0 P_____P__PP___ SH171960 -12.5097 133.271 -1 -13.1486 133.005 1003 -13.1578 133.177 TC 25 1003 -12.5465 133.248 1 15 255
1960075S12149 1960 12 SI WA NOT_NAMED 1960-03-22 04:00:00 TS -12.9070 133.127 main 0 0 P_____P__PP___ SH171960 -12.7469 133.079 -1 -13.1293 132.669 1003 -13.1391 132.835 TC 25 1003 -12.7358 133.052 1 15 252
1960075S12149 1960 12 SI WA NOT_NAMED 1960-03-22 05:30:00 TS -13.0147 132.777 1003 bom main 0 0 P_____O__PP___ SH171960 -13.0958 132.795 -1 -13.1000 132.200 1003 -13.1096 132.350 TC 25 1003 -13.0322 132.766 1 14 253
1960075S12149 1960 12 SI WA NOT_NAMED 1960-03-22 06:00:00 TS -13.0460 132.665 main 0 0 O_____P__OP___ jtwc_sh SH171960 -13.2000 132.700 -1 -13.0923 132.056 1003 -13.1000 132.200 TC 25 1003 -13.1309 132.671 1 13 258
1960075S12149 1960 12 SI WA NOT_NAMED 1960-03-22 09:00:00 TS -13.1741 132.029 main 0 0 P_____P__PP___ SH171960 -13.6847 132.115 -1 -13.0462 131.298 1003 -13.0497 131.410 TC 25 1003 -13.6634 132.099 1 12 261
1960075S12149 1960 12 SI WA NOT_NAMED 1960-03-22 11:00:00 TS -13.2005 131.627 main 0 0 P_____P__PO___ SH171960 -13.8705 131.712 -1 -13.0103 130.890 1003 -13.0166 130.983 TC 25 1003 -13.9000 131.700 1 12 268
1960075S12149 1960 12 SI WA NOT_NAMED 1960-03-22 11:30:00 TS -13.1939 131.527 1003 bom main 0 0 P_____O__PP___ SH171960 -13.8913 131.607 -1 -13.0000 130.800 1003 -13.0083 130.889 TC 25 1003 -13.9066 131.589 1 12 275
1960075S12149 1960 12 SI WA NOT_NAMED 1960-03-22 12:00:00 TS -13.1828 131.427 main 0 0 O_____P__OP___ jtwc_sh SH171960 -13.9000 131.500 -1 -12.9857 130.707 1003 -13.0000 130.800 TC 25 1003 -13.9053 131.478 1 12 283
1960075S12149 1960 12 SI WA NOT_NAMED 1960-03-22 15:00:00 TS -13.0350 130.835 main 0 0 P_____P__PP___ SH171960 -13.6749 130.814 -1 -12.9064 130.258 1003 -12.9416 130.445 TC 28 1001 -13.7613 130.789 1 12 285
1960075S12149 1960 12 SI WA NOT_NAMED 1960-03-22 15:30:00 TS -13.0035 130.736 1003 bom main 0 0 P_____O__PP___ SH171960 -13.6120 130.696 -1 -12.9000 130.200 1003 -12.9328 130.389 TC 29 1000 -13.7199 130.672 1 12 288
1960075S12149 1960 12 SI WA NOT_NAMED 1960-03-22 16:00:00 TS -12.9718 130.638 main 0 0 P_____P__PP___ SH171960 -13.5468 130.577 -1 -12.8974 130.156 1002 -12.9246 130.329 TC 29 1000 -13.6751 130.554 1 13 287
1960075S12149 1960 12 SI WA NOT_NAMED 1960-03-22 17:30:00 TS -12.8779 130.327 bom main 0 0 P_____I__PP___ SH171960 -13.3559 130.219 -1 -12.9000 130.000 1001 -12.9047 130.100 TC 31 999 -13.5255 130.200 1 13 287
1960075S12149 1960 12 SI WA NOT_NAMED 1960-03-22 18:00:00 TS -12.8487 130.214 main 15 15 O_____P__IP___ jtwc_sh SH171960 -13.3000 130.100 -1 -12.8989 129.903 1000 -12.9000 130.000 TC 32 999 -13.4724 130.081 1 15 281
1960075S12149 1960 12 SI WA NOT_NAMED 1960-03-22 21:00:00 TS -12.7047 129.441 main 83 83 P_____P__PP___ SH171960 -13.0973 129.400 -1 -12.8898 128.945 997 -12.8778 129.090 TC 36 997 -13.1605 129.369 1 16 279
1960075S12149 1960 12 SI WA NOT_NAMED 1960-03-22 23:00:00 TS -12.6500 128.885 main 137 137 P_____P__PO___ SH171960 -13.0192 128.933 -1 -12.8952 128.179 995 -12.8860 128.365 TC 38 995 -13.0000 128.900 1 16 275
1960075S12149 1960 12 SI WA NOT_NAMED 1960-03-22 23:30:00 TS -12.6461 128.748 995 bom main 156 156 P_____O__PP___ SH171960 -13.0078 128.817 -1 -12.9000 128.000 995 -12.8921 128.182 TC 39 995 -12.9859 128.787 1 16 271
1960075S12149 1960 12 SI WA NOT_NAMED 1960-03-23 00:00:00 TS -12.6455 128.616 main 164 150 O_____P__OP___ jtwc_sh SH171960 -13.0000 128.700 -1 -12.9045 127.869 994 -12.9000 128.000 TC 40 995 -12.9746 128.674 1 15 266
1960075S12149 1960 12 SI WA NOT_NAMED 1960-03-23 03:00:00 TS -12.7049 127.863 main 150 139 P_____P__PP___ SH171960 -13.0199 127.993 -1 -12.9576 127.220 989 -12.9855 127.074 TC -12.9571 128.004 1 15 264
1960075S12149 1960 12 SI WA NOT_NAMED 1960-03-23 04:00:00 TS -12.7472 127.616 main 134 112 P_____P__PP___ SH171960 -13.0448 127.759 -1 -12.9864 127.040 988 -13.0292 126.778 TC -12.9682 127.781 1 15 258
1960075S12149 1960 12 SI WA NOT_NAMED 1960-03-23 06:00:00 TS -12.8591 127.123 main 100 92 O_____P__PP___ jtwc_sh SH171960 -13.1000 127.300 -1 -13.0627 126.705 985 -13.1374 126.204 TC -13.0110 127.335 1 15 255
1960075S12149 1960 12 SI WA NOT_NAMED 1960-03-23 09:00:00 TS -13.0649 126.375 main 95 95 P_____P__PP___ SH171960 -13.1347 126.657 -1 -13.2293 126.193 981 -13.3461 125.385 TC -13.1144 126.659 1 15 254
1960075S12149 1960 12 SI WA NOT_NAMED 1960-03-23 10:00:00 TS -13.1451 126.124 980 bom main 100 89 P_____O__PP___ SH171960 -13.1506 126.444 -1 -13.3000 126.000 980 -13.4267 125.122 TC -13.1561 126.431 1 16 252
1960075S12149 1960 12 SI WA NOT_NAMED 1960-03-23 11:00:00 TS -13.2298 125.866 main 92 84 P_____P__PO___ SH171960 -13.1717 126.225 -1 -13.3814 125.741 -13.5121 124.863 TC -13.2000 126.200 2 16 251
1960075S12149 1960 12 SI WA NOT_NAMED 1960-03-23 12:00:00 TS -13.3161 125.609 main 95 93 O_____P__PP___ jtwc_sh SH171960 -13.2000 126.000 -1 -13.4724 125.467 -13.6020 124.608 TC -13.2328 125.961 2 16 250
1960075S12149 1960 12 SI WA NOT_NAMED 1960-03-23 15:00:00 TS -13.5833 124.841 main 116 116 P_____P__PP___ SH171960 -13.3275 125.258 -1 -13.7915 124.575 -13.8952 123.868 TC -13.3519 125.233 2 16 250
1960075S12149 1960 12 SI WA NOT_NAMED 1960-03-23 16:00:00 TS -13.6766 124.591 main 119 119 P_____P__PP___ SH171960 -13.3812 125.003 -1 -13.9092 124.262 -13.9995 123.628 TC -13.3981 124.988 2 15 249
1960075S12149 1960 12 SI WA NOT_NAMED 1960-03-23 18:00:00 TS -13.8648 124.105 main 142 142 O_____P__PP___ jtwc_sh SH171960 -13.5000 124.500 -1 -14.1546 123.624 -14.2159 123.157 TC -13.4994 124.498 2 15 247
1960075S12149 1960 12 SI WA NOT_NAMED 1960-03-23 21:00:00 TS -14.1571 123.416 main 187 187 P_____P__PP___ SH171960 -13.6923 123.785 -1 -14.5307 122.671 -14.5542 122.470 TC -13.6722 123.771 2 14 246
1960075S12149 1960 12 SI WA NOT_NAMED 1960-03-23 23:00:00 TS -14.3548 122.976 main 201 201 P_____P__PO___ SH171960 -13.8306 123.325 -1 -14.7736 122.064 -14.7845 122.022 TC -13.8000 123.300 1 14 245
1960075S12149 1960 12 SI WA NOT_NAMED 1960-03-24 00:00:00 TS -14.4521 122.760 main 211 211 O_____P__OP___ jtwc_sh SH171960 -13.9000 123.100 -1 -14.8894 121.775 -14.9000 121.800 TC 65 975 -13.8584 123.074 1 14 246
1960075S12149 1960 12 SI WA NOT_NAMED 1960-03-24 01:00:00 TS -14.5466 122.540 975 bom main 227 211 P_____O__PP___ SH171960 -13.9639 122.878 -1 -15.0000 121.500 975 -15.0006 121.550 TC -13.9191 122.852 1 14 246
1960075S12149 1960 12 SI WA NOT_NAMED 1960-03-24 03:00:00 TS -14.7307 122.110 main 218 213 P_____P__PP___ SH171960 -14.0923 122.442 -1 -15.1781 121.012 974 -15.2079 121.055 TC -14.0481 122.414 1 14 246
1960075S12149 1960 12 SI WA NOT_NAMED 1960-03-24 04:00:00 TS -14.8221 121.896 main 218 214 P_____P__PP___ SH171960 -14.1586 122.228 -1 -15.2639 120.781 974 -15.3143 120.809 TC -14.1169 122.198 1 14 247
1960075S12149 1960 12 SI WA NOT_NAMED 1960-03-24 06:00:00 TS -15.0015 121.465 main 225 225 O_____P__PP___ jtwc_sh SH171960 -14.3000 121.800 -1 -15.4344 120.337 973 -15.5318 120.325 TC -14.2642 121.770 1 14 247
1960075S12149 1960 12 SI WA NOT_NAMED 1960-03-24 09:00:00 TS -15.2620 120.818 main 255 255 P_____P__PP___ SH171960 -14.5272 121.165 -1 -15.7029 119.705 973 -15.8677 119.619 TC -14.5130 121.131 1 14 247
1960075S12149 1960 12 SI WA NOT_NAMED 1960-03-24 10:00:00 TS -15.3506 120.602 973 bom main 262 262 P_____O__PP___ SH171960 -14.6118 120.949 -1 -15.8000 119.500 973 -15.9817 119.390 TC -14.6042 120.916 1 14 247
1960075S12149 1960 12 SI WA NOT_NAMED 1960-03-24 11:00:00 TS -15.4425 120.383 main 278 278 P_____P__PO___ SH171960 -14.7024 120.728 -1 -15.9093 119.277 -16.0965 119.165 TC -14.7000 120.700 1 14 246
1960075S12149 1960 12 SI WA NOT_NAMED 1960-03-24 12:00:00 TS -15.5377 120.161 main 286 286 O_____P__PP___ jtwc_sh SH171960 -14.8000 120.500 -1 -16.0238 119.053 -16.2119 118.943 TC -14.8012 120.465 1 14 245
1960075S12149 1960 12 SI WA NOT_NAMED 1960-03-24 15:00:00 TS -15.8460 119.488 main 332 327 P_____P__PP___ SH171960 -15.1352 119.735 -1 -16.3927 118.393 -16.5609 118.306 TC -15.1330 119.749 1 14 244
1960075S12149 1960 12 SI WA NOT_NAMED 1960-03-24 16:00:00 TS -15.9535 119.267 main 341 341 P_____P__PP___ SH171960 -15.2559 119.479 -1 -16.5219 118.178 -16.6776 118.103 TC -15.2507 119.511 1 14 243
1960075S12149 1960 12 SI WA NOT_NAMED 1960-03-24 18:00:00 TS -16.1712 118.839 main 382 382 O_____P__PP___ jtwc_sh SH171960 -15.5000 119.000 -1 -16.7858 117.760 -16.9109 117.714 TC -15.4922 119.045 1 14 241
1960075S12149 1960 12 SI WA NOT_NAMED 1960-03-24 21:00:00 TS -16.4893 118.241 main 413 397 P_____P__PP___ SH171960 -15.8498 118.397 -1 -17.1858 117.174 -17.2584 117.176 TC -15.8596 118.390 1 13 240
1960075S12149 1960 12 SI WA NOT_NAMED 1960-03-24 23:00:00 TS -16.7089 117.874 main 400 393 P_____P__PO___ SH171960 -16.0832 118.056 -1 -17.4477 116.819 -17.4870 116.851 TC -16.1000 118.000 1 12 237
1960075S12149 1960 12 SI WA NOT_NAMED 1960-03-25 00:00:00 TS -16.8213 117.702 main 397 391 O_____P__OP___ jtwc_sh SH171960 -16.2000 117.900 -1 -17.5754 116.655 -17.6000 116.700 TC 70 970 -16.2001 117.829 1 12 235
1960075S12149 1960 12 SI WA NOT_NAMED 1960-03-25 01:00:00 TS -16.9371 117.535 970 bom main 395 370 P_____O__PP___ SH171960 -16.3192 117.749 -1 -17.7000 116.500 970 -17.6997 116.555 TC -16.2979 117.669 1 12 232
1960075S12149 1960 12 SI WA NOT_NAMED 1960-03-25 03:00:00 TS -17.1750 117.224 main 370 362 P_____P__PP___ SH171960 -16.5573 117.477 -1 -17.9074 116.224 -17.8979 116.285 TC -16.4910 117.378 1 11 231
1960075S12149 1960 12 SI WA NOT_NAMED 1960-03-25 04:00:00 TS -17.2979 117.076 main 362 346 P_____P__PP___ SH171960 -16.6744 117.350 -1 -18.0079 116.099 -17.9977 116.160 TC -16.5886 117.244 1 11 228
1960075S12149 1960 12 SI WA NOT_NAMED 1960-03-25 06:00:00 TS -17.5494 116.791 main 346 303 O_____P__PP___ jtwc_sh SH171960 -16.9000 117.100 -1 -18.2079 115.872 -18.2020 115.926 TC -16.7919 116.992 1 11 227
1960075S12149 1960 12 SI WA NOT_NAMED 1960-03-25 09:00:00 TS -17.9269 116.374 main 303 273 P_____P__PP___ SH171960 -17.1849 116.700 -1 -18.5198 115.571 -18.5302 115.603 TC -17.1339 116.637 1 11 225
1960075S12149 1960 12 SI WA NOT_NAMED 1960-03-25 11:00:00 TS -18.1963 116.106 main 275 267 P_____P__PO___ SH171960 -17.3855 116.433 -1 -18.7474 115.384 -18.7710 115.400 TC -17.4000 116.400 1 11 223
1960075S12149 1960 12 SI WA NOT_NAMED 1960-03-25 12:00:00 TS -18.3366 115.971 main 267 249 O_____P__OP___ jtwc_sh SH171960 -17.5000 116.300 -1 -18.8701 115.292 -18.9000 115.300 TC -17.5274 116.258 1 12 223
1960075S12149 1960 12 SI WA NOT_NAMED 1960-03-25 13:00:00 TS -18.4781 115.834 bom main 253 231 P_____O__PP___ SH171960 -17.6171 116.167 -1 -19.0000 115.200 -19.0253 115.184 TC -17.6605 116.115 1 12 221
1960075S12149 1960 12 SI WA NOT_NAMED 1960-03-25 15:00:00 TS -18.7777 115.560 main 231 227 P_____P__PP___ SH171960 -17.8824 115.900 -1 -19.2941 114.978 -19.2891 114.953 TC -17.9487 115.828 1 12 220
1960075S12149 1960 12 SI WA NOT_NAMED 1960-03-25 16:00:00 TS -18.9365 115.425 main 233 216 P_____P__PP___ SH171960 -18.0362 115.766 -1 -19.4508 114.868 -19.4288 114.841 TC -18.1067 115.686 1 13 217
1960075S12149 1960 12 SI WA NOT_NAMED 1960-03-25 18:00:00 TS -19.2745 115.159 main 207 185 O_____P__PP___ jtwc_sh SH171960 -18.4000 115.500 -1 -19.7794 114.652 -19.7261 114.626 TC -18.4572 115.410 1 13 215
1960075S12149 1960 12 SI WA NOT_NAMED 1960-03-25 21:00:00 TS -19.8314 114.772 main 185 167 P_____P__PP___ SH171960 -19.0526 115.085 -1 -20.2976 114.347 -20.2250 114.335 TC -19.0902 115.026 1 14 211
1960075S12149 1960 12 SI WA NOT_NAMED 1960-03-25 23:00:00 TS -20.2464 114.535 main 172 151 P_____P__PO___ SH171960 -19.5943 114.822 -1 -20.6499 114.163 -20.5990 114.171 TC -19.6000 114.800 2 14 207
1960075S12149 1960 12 SI WA NOT_NAMED 1960-03-26 00:00:00 TS -20.4690 114.423 main 143 126 O_____P__OP___ jtwc_sh SH171960 -19.9000 114.700 -1 -20.8257 114.078 -20.8000 114.100 TC 80 965 -19.8928 114.682 2 15 205
1960075S12149 1960 12 SI WA NOT_NAMED 1960-03-26 01:00:00 TS -20.6953 114.309 965 bom main 126 89 P_____O__PP___ SH171960 -20.2293 114.578 -1 -21.0000 114.000 965 -20.9630 114.012 TC -20.2072 114.567 2 15 204
1960075S12149 1960 12 SI WA NOT_NAMED 1960-03-26 03:00:00 TS -21.1579 114.099 main 78 55 P_____P__PP___ SH171960 -20.9550 114.355 -1 -21.2313 113.864 965 -21.2990 113.848 TC -20.8892 114.356 2 15 202
1960075S12149 1960 12 SI WA NOT_NAMED 1960-03-26 04:00:00 TS -21.3976 114.006 main 55 15 P_____P__PP___ SH171960 -21.3366 114.258 -1 -21.3478 113.803 965 -21.4755 113.773 TC -21.2509 114.261 2 15 198
1960075S12149 1960 12 SI WA NOT_NAMED 1960-03-26 06:00:00 TS -21.8785 113.845 main 20 0 O_____P__PP___ jtwc_sh SH171960 -22.1000 114.100 -1 -21.6176 113.695 965 -21.8544 113.644 TC -22.0015 114.098 2 15 194
1960075S12149 1960 12 SI WA NOT_NAMED 1960-03-26 09:00:00 TS -22.6148 113.672 main 0 0 P_____P__PP___ SH171960 -23.1649 113.933 -1 -22.2190 113.548 965 -22.5139 113.512 TC -23.1513 113.937 2 15 191
1960075S12149 1960 12 SI WA NOT_NAMED 1960-03-26 10:00:00 TS -22.8747 113.636 965 bom main 20 20 P_____O__PP___ SH171960 -23.5132 113.906 -1 -22.5000 113.500 965 -22.7652 113.488 TC -23.5293 113.911 2 16 185
1960075S12149 1960 12 SI WA NOT_NAMED 1960-03-26 11:00:00 TS -23.1464 113.607 main 20 20 P_____P__PO___ SH171960 -23.8583 113.894 -1 -22.8477 113.411 965 -23.0352 113.476 TC -23.9000 113.900 1 17 184
1960075S12149 1960 12 SI WA NOT_NAMED 1960-03-26 12:00:00 TS -23.4230 113.591 main 20 0 O_____P__PP___ jtwc_sh SH171960 -24.2000 113.900 -1 -23.2274 113.333 965 -23.3257 113.477 TC -24.2344 113.896 1 17 0
1960075S12149 1960 12 SI WA NOT_NAMED 1960-03-26 14:00:00 TS -23.9811 113.603 965 bom main 0 0 P_____O__PP___ SH171960 -24.8799 113.944 -1 -24.0000 113.300 965 -23.9754 113.519 TC -24.8908 113.933 1 17 177
1960075S12149 1960 12 SI WA NOT_NAMED 1960-03-26 15:00:00 TS -24.2665 113.639 main 0 0 P_____P__PP___ SH171960 -25.2149 113.990 -1 -24.3418 113.380 965 -24.3382 113.563 TC -25.2145 113.972 1 18 172
1960075S12149 1960 12 SI WA NOT_NAMED 1960-03-26 16:00:00 TS -24.5664 113.690 965 bom main 0 0 P_____O__PP___ SH171960 -25.5466 114.049 -1 -24.7000 113.500 965 4 -24.7287 113.624 TC -25.5361 114.025 1 20 171
1960075S12149 1960 12 SI WA NOT_NAMED 1960-03-26 18:00:00 TS -25.2287 113.821 main 0 0 O_____P__OP___ jtwc_sh SH171960 -26.2000 114.200 -1 -25.5296 113.773 975 -25.6000 113.800 TC 60 980 -26.1766 114.168 1 21 170
1960075S12149 1960 12 SI WA NOT_NAMED 1960-03-26 19:00:00 TS -25.5935 113.890 980 bom main 15 9 P_____O__PP___ SH171960 -26.5171 114.273 -1 -26.0000 113.900 980 -26.0832 113.917 TC 56 982 -26.4972 114.256 1 23 171
1960075S12149 1960 12 SI WA NOT_NAMED 1960-03-26 20:00:00 TS -25.9788 113.963 980 bom main 9 9 P_____O__PP___ SH171960 -26.8302 114.355 -1 -26.5000 114.000 980 -26.5938 114.051 TC 53 984 -26.8190 114.353 1 24 170
1960075S12149 1960 12 SI WA NOT_NAMED 1960-03-26 21:00:00 TS -26.3892 114.048 main 0 0 P_____P__PP___ SH171960 -27.1423 114.449 -1 -27.0821 114.134 985 -27.1265 114.199 TC 50 987 -27.1428 114.461 1 25 169
1960075S12149 1960 12 SI WA NOT_NAMED 1960-03-26 22:00:00 TS -26.7892 114.138 990 bom main 0 0 P_____O__PP___ SH171960 -27.4561 114.553 -1 -27.7000 114.300 990 -27.6755 114.359 TC 46 989 -27.4696 114.576 1 25 168
1960075S12149 1960 12 SI WA NOT_NAMED 1960-03-26 23:00:00 TS -27.1866 114.235 main 0 0 P_____P__PO___ SH171960 -27.7744 114.670 -1 -28.2905 114.505 991 -28.2352 114.527 TC 43 991 -27.8000 114.700 1 24 167
1960075S12149 1960 12 SI WA NOT_NAMED 1960-03-27 00:00:00 TS -27.5795 114.337 main 0 0 O_____P__OP___ jtwc_sh SH171960 -28.1000 114.800 -1 -28.8616 114.720 992 -28.8000 114.700 TC 40 994 -28.1356 114.835 1 24 167
1960075S12149 1960 12 SI WA NOT_NAMED 1960-03-27 01:00:00 TS -27.9572 114.437 994 bom main 0 0 P_____O___P___ SH171960 -28.4361 114.946 -1 -29.4000 114.900 994 TC -28.4735 114.982 1 25 167
1960075S12149 1960 12 SI WA NOT_NAMED 1960-03-27 03:00:00 TS -28.8106 114.659 main 0 0 P_____P___P___ SH171960 -29.1277 115.277 -1 -30.3698 115.073 994 TC -29.1567 115.306 1 26 167
1960075S12149 1960 12 SI WA NOT_NAMED 1960-03-27 03:30:00 TS -29.0267 114.715 995 bom main 9 9 P_____O___P___ SH171960 -29.3040 115.365 -1 -30.6000 115.100 995 TC -29.3290 115.391 1 23 166
1960075S12149 1960 12 SI WA NOT_NAMED 1960-03-27 04:00:00 TS -29.1854 114.759 main 14 0 P_____P___P___ SH171960 -29.4814 115.453 -1 -30.8294 115.127 995 TC -29.5020 115.477 1 24 166
1960075S12149 1960 12 SI WA NOT_NAMED 1960-03-27 06:00:00 TS -30.0006 114.985 main 0 0 O_____P___P___ jtwc_sh SH171960 -30.2000 115.800 -1 -31.7438 115.241 995 -30.2008 115.825 1 25 166
1960075S12149 1960 12 SI WA NOT_NAMED 1960-03-27 07:00:00 TS -30.3744 115.096 996 bom main 0 0 P_____O___P___ SH171960 -30.5609 115.966 -1 -32.2000 115.300 996 -30.5544 115.996 1 25 163
1960075S12149 1960 12 SI WA NOT_NAMED 1960-03-27 09:00:00 TS -31.2043 115.419 main 9 0 P_________P___ SH171960 -31.2925 116.288 -1 -31.2706 116.320 1 27 161
1960075S12149 1960 12 SI WA NOT_NAMED 1960-03-27 11:00:00 TS -32.0893 115.766 main 0 0 P_________O___ SH171960 -32.0307 116.575 -1 -32.0000 116.600 2 28 156
1960075S12149 1960 12 SI WA NOT_NAMED 1960-03-27 12:00:00 TS -32.4941 116.095 main 0 0 O_________P___ jtwc_sh SH171960 -32.4000 116.700 -1 -32.3700 116.717 2 26 155
1960075S12149 1960 12 SI WA NOT_NAMED 1960-03-27 15:00:00 TS -33.6579 116.640 main 0 0 P_________P___ SH171960 -33.5024 116.987 -1 -33.4992 116.984 2 24 158
1960075S12149 1960 12 SI WA NOT_NAMED 1960-03-27 16:00:00 TS -33.9999 116.827 main 0 0 P_________P___ SH171960 -33.8686 117.062 -1 -33.8812 117.048 2 21 156
1960075S12149 1960 12 SI WA NOT_NAMED 1960-03-27 18:00:00 TS -34.6309 117.169 main 0 0 O_________P___ jtwc_sh SH171960 -34.6000 117.200 -1 -34.6515 117.148 2 22 169
1960075S12149 1960 12 SI WA NOT_NAMED 1960-03-27 21:00:00 NR -35.8185 117.249 main 82 82 __________P___ SH171960 -1 -35.8185 117.249 2 24 177
1960075S12149 1960 12 SI WA NOT_NAMED 1960-03-27 23:00:00 NR -36.6000 117.300 main 169 __________O___ SH171960 -1 -36.6000 117.300 1 24 177

Digital Typhoon Data and Search

About IBTrACS Database

This database is a web-friendly format of International Best Track Archive for Climate Stewardship (IBTrACS), a global best track data archive curated by NOAA dating back to 1842.

Updated: 2021-10-27